Time;durP1;ratioP1;P1;durP2;ratioP2;P2;SDS_P1;SDS_P2;PMS_P1;PMS_P2;Temp;Humidity;BMP_temperature;BMP_pressure;BME280_temperature;BME280_humidity;BME280_pressure;Samples;Min_cycle;Max_cycle;Signal;HPM_P1;HPM_P2
2021/05/30 00:00:48;;;;;;;0.70;0.70;;;;;;;-144.31;100.00;76176.84;5002209;28;20250;-75
2021/05/30 00:03:16;;;;;;;0.70;0.70;;;;;;;-144.31;100.00;76176.84;4995512;28;20029;-75
2021/05/30 00:05:44;;;;;;;;;;;;;;;-144.31;100.00;76158.88;5007280;28;20045;-75
2021/05/30 00:08:09;;;;;;;0.63;0.63;;;;;;;-144.31;100.00;76186.84;5001888;28;20093;-74
2021/05/30 00:10:35;;;;;;;0.70;0.70;;;;;;;-144.31;100.00;76202.81;5005472;28;20149;-75
2021/05/30 00:13:01;;;;;;;0.70;0.70;;;;;;;-144.31;100.00;76198.81;5019778;28;20033;-75
2021/05/30 00:15:26;;;;;;;0.68;0.68;;;;;;;-144.31;100.00;76200.81;5022792;28;20034;-75
2021/05/30 00:17:52;;;;;;;0.70;0.70;;;;;;;-144.31;100.00;76180.84;5008341;28;20394;-75
2021/05/30 00:20:18;;;;;;;0.70;0.70;;;;;;;-144.31;100.00;76204.81;4990280;28;20092;-75
2021/05/30 00:22:45;;;;;;;0.80;0.80;;;;;;;-144.31;100.00;76152.88;5020271;28;20040;-75
2021/05/30 00:25:11;;;;;;;0.70;0.70;;;;;;;-144.31;100.00;76184.84;5003405;28;20044;-75
2021/05/30 00:27:37;;;;;;;0.70;0.70;;;;;;;-144.31;100.00;76180.84;5010877;28;20500;-73
2021/05/30 00:30:04;;;;;;;0.70;0.70;;;;;;;-144.31;100.00;76184.84;5007596;28;20037;-76
2021/05/30 00:32:32;;;;;;;0.80;0.80;;;;;;;-144.31;100.00;76178.84;5009236;28;20673;-74
2021/05/30 00:35:00;;;;;;;0.70;0.70;;;;;;;-144.31;100.00;76168.84;5018483;28;20032;-74
2021/05/30 00:37:28;;;;;;;0.70;0.70;;;;;;;-144.31;100.00;76160.88;5007008;28;20076;-74
2021/05/30 00:39:53;;;;;;;0.70;0.70;;;;;;;-144.31;100.00;76148.88;5008514;28;20038;-74
2021/05/30 00:42:19;;;;;;;0.75;0.75;;;;;;;-144.31;100.00;76136.88;5006469;28;20036;-74
2021/05/30 00:44:47;;;;;;;0.70;0.70;;;;;;;-144.31;100.00;76152.88;5018092;28;20041;-74
2021/05/30 00:47:15;;;;;;;0.70;0.70;;;;;;;-144.31;100.00;76152.88;5008038;28;20060;-74
2021/05/30 00:49:40;;;;;;;0.73;0.73;;;;;;;-144.31;100.00;76150.88;5001823;28;20689;-74
2021/05/30 00:52:08;;;;;;;0.70;0.70;;;;;;;-144.31;100.00;76160.88;4987196;28;20085;-74
2021/05/30 00:54:38;;;;;;;0.70;0.70;;;;;;;-144.31;100.00;76148.88;5000974;28;20053;-74
2021/05/30 00:57:12;;;;;;;0.60;0.60;;;;;;;-144.31;100.00;76142.88;5006514;28;20595;-74
2021/05/30 00:59:40;;;;;;;0.77;0.77;;;;;;;-144.31;100.00;76128.91;5023145;28;20517;-75
2021/05/30 01:02:05;;;;;;;0.70;0.70;;;;;;;-144.31;100.00;76128.91;5023008;28;20096;-74
2021/05/30 01:04:34;;;;;;;0.70;0.70;;;;;;;-144.31;100.00;76110.91;5021214;28;20042;-74
2021/05/30 01:07:00;;;;;;;0.80;0.80;;;;;;;-144.31;100.00;76088.94;5000268;28;20026;-75
2021/05/30 01:09:28;;;;;;;0.70;0.70;;;;;;;-144.31;100.00;76064.97;4988844;28;20030;-74
2021/05/30 01:11:55;;;;;;;0.70;0.70;;;;;;;-144.31;100.00;76035.00;5018275;28;20033;-75
2021/05/30 01:14:21;;;;;;;0.70;0.70;;;;;;;-144.31;100.00;75969.09;5007592;28;20388;-74
2021/05/30 01:16:47;;;;;;;0.60;0.60;;;;;;;-144.31;100.00;75963.09;5010375;28;20354;-74
2021/05/30 01:19:14;;;;;;;0.68;0.68;;;;;;;-144.31;100.00;75963.09;5005463;28;20571;-74
2021/05/30 01:21:47;;;;;;;0.70;0.70;;;;;;;-144.31;100.00;75933.13;4989860;28;20038;-74
2021/05/30 01:24:14;;;;;;;0.70;0.70;;;;;;;-144.31;100.00;75897.19;4987978;28;20399;-74
2021/05/30 01:26:40;;;;;;;0.70;0.70;;;;;;;-144.31;100.00;75877.22;4990096;28;20042;-73
2021/05/30 01:29:09;;;;;;;0.60;0.60;;;;;;;-144.31;100.00;75893.19;5006910;28;20069;-73
2021/05/30 01:31:34;;;;;;;0.50;0.50;;;;;;;-144.31;100.00;75895.19;4990298;28;20042;-74
2021/05/30 01:34:00;;;;;;;0.60;0.60;;;;;;;-144.31;100.00;75881.22;4991773;28;20034;-74
2021/05/30 01:36:28;;;;;;;;;;;;;;;-144.31;100.00;75887.19;5002565;28;20019;-74
2021/05/30 01:38:53;;;;;;;0.60;0.60;;;;;;;-144.31;100.00;75921.16;4991781;28;19976;-74
2021/05/30 01:41:18;;;;;;;0.60;0.60;;;;;;;-144.31;100.00;75891.19;5006566;28;20028;-74
2021/05/30 01:43:44;;;;;;;0.60;0.60;;;;;;;-144.31;100.00;75867.22;4991841;28;20586;-74
2021/05/30 01:46:10;;;;;;;0.60;0.60;;;;;;;-144.31;100.00;75897.19;5009504;28;20095;-74
2021/05/30 01:48:35;;;;;;;0.70;0.70;;;;;;;-144.31;100.00;75921.16;5011185;28;20045;-74
2021/05/30 01:51:00;;;;;;;0.60;0.60;;;;;;;-144.31;100.00;75927.16;4993390;28;20161;-74
2021/05/30 01:53:46;;;;;;;0.65;0.65;;;;;;;-144.31;100.00;75941.13;5008074;28;20037;-74
2021/05/30 01:58:40;;;;;;;0.60;0.60;;;;;;;-144.31;100.00;75955.13;5007057;28;20041;-74
2021/05/30 02:01:10;;;;;;;0.70;0.70;;;;;;;-144.31;100.00;75957.13;5006655;28;20141;-74
2021/05/30 02:03:35;;;;;;;0.60;0.60;;;;;;;-144.31;100.00;75927.16;5009394;28;20045;-74
2021/05/30 02:06:02;;;;;;;0.60;0.60;;;;;;;-144.31;100.00;75951.13;5007276;28;20041;-75
2021/05/30 02:08:30;;;;;;;0.60;0.60;;;;;;;-144.31;100.00;75907.16;5028506;28;20117;-73
2021/05/30 02:10:59;;;;;;;0.60;0.60;;;;;;;-144.31;100.00;75923.16;5018953;28;20065;-74
2021/05/30 02:13:27;;;;;;;0.60;0.60;;;;;;;-144.31;100.00;75951.13;5006423;28;20037;-74
2021/05/30 02:15:55;;;;;;;0.70;0.70;;;;;;;-144.31;100.00;75933.13;5025145;28;20037;-73
2021/05/30 02:18:23;;;;;;;0.60;0.60;;;;;;;-144.31;100.00;75869.22;5005819;28;20037;-74
2021/05/30 02:20:49;;;;;;;0.60;0.60;;;;;;;-144.31;100.00;75881.22;5010071;28;20041;-74
2021/05/30 02:23:15;;;;;;;0.60;0.60;;;;;;;-144.31;100.00;75909.16;5005390;28;20034;-74
2021/05/30 02:25:41;;;;;;;0.60;0.60;;;;;;;-144.31;100.00;75917.16;4997953;28;20141;-74
2021/05/30 02:28:09;;;;;;;0.60;0.60;;;;;;;-144.31;100.00;75851.25;5005499;28;20038;-74
2021/05/30 02:30:35;;;;;;;0.63;0.63;;;;;;;-144.31;100.00;75861.22;5005602;28;20049;-74
2021/05/30 02:33:03;;;;;;;0.70;0.70;;;;;;;-144.31;100.00;75873.22;5004966;28;20030;-75
2021/05/30 02:35:28;;;;;;;;;;;;;;;-144.31;100.00;75919.16;5003450;28;20044;-74
2021/05/30 02:37:56;;;;;;;0.70;0.70;;;;;;;-144.31;100.00;75939.13;5003648;28;19918;-74
2021/05/30 02:40:23;;;;;;;0.70;0.70;;;;;;;-144.31;100.00;75949.13;5007270;28;20562;-74
2021/05/30 02:42:51;;;;;;;0.70;0.70;;;;;;;-144.31;100.00;75949.13;5007979;28;20099;-74
2021/05/30 02:45:17;;;;;;;0.70;0.70;;;;;;;-144.31;100.00;75949.13;5005768;28;20091;-74
2021/05/30 02:47:43;;;;;;;0.70;0.70;;;;;;;-144.31;100.00;75881.22;5003849;28;20380;-74
2021/05/30 02:50:09;;;;;;;0.65;0.65;;;;;;;-144.31;100.00;75927.16;4990527;28;20052;-74
2021/05/30 02:52:37;;;;;;;0.60;0.60;;;;;;;-144.31;100.00;75927.16;5005637;28;20384;-75
2021/05/30 02:55:03;;;;;;;0.70;0.70;;;;;;;-144.31;100.00;75921.16;4988309;28;20034;-74
2021/05/30 02:57:28;;;;;;;0.60;0.60;;;;;;;-144.31;100.00;75969.09;5001914;28;20604;-74
2021/05/30 02:59:54;;;;;;;0.60;0.60;;;;;;;-144.31;100.00;75925.16;5020761;28;20345;-74
2021/05/30 03:02:19;;;;;;;0.70;0.70;;;;;;;-144.31;100.00;75923.16;5008725;28;20026;-74
2021/05/30 03:04:49;;;;;;;0.70;0.70;;;;;;;-144.31;100.00;75969.09;5005096;28;20120;-74
2021/05/30 03:07:17;;;;;;;0.70;0.70;;;;;;;-144.31;100.00;75973.09;5005172;28;20064;-74
2021/05/30 03:09:43;;;;;;;0.63;0.63;;;;;;;-144.31;100.00;75989.06;5005990;28;20058;-74
2021/05/30 03:12:09;;;;;;;0.70;0.70;;;;;;;-144.31;100.00;75995.06;5014923;28;20105;-74
2021/05/30 03:14:34;;;;;;;0.60;0.60;;;;;;;-144.31;100.00;75973.09;5002767;28;20034;-74
2021/05/30 03:17:02;;;;;;;0.60;0.60;;;;;;;-144.31;100.00;76013.03;5000849;28;20491;-74
2021/05/30 03:19:27;;;;;;;0.60;0.60;;;;;;;-144.31;100.00;76011.03;5004245;28;20042;-74
2021/05/30 03:21:53;;;;;;;0.60;0.60;;;;;;;-144.31;100.00;76035.00;5018924;28;20207;-74
2021/05/30 03:24:19;;;;;;;0.60;0.60;;;;;;;-144.31;100.00;76045.00;5009020;28;20042;-74
2021/05/30 03:26:44;;;;;;;0.60;0.60;;;;;;;-144.31;100.00;76021.03;5006525;28;20526;-74
2021/05/30 03:29:10;;;;;;;0.65;0.65;;;;;;;-144.31;100.00;75941.13;5002637;28;20485;-74
2021/05/30 03:31:35;;;;;;;0.60;0.60;;;;;;;-144.31;100.00;75945.13;5008936;28;20048;-74
2021/05/30 03:34:01;;;;;;;0.60;0.60;;;;;;;-144.31;100.00;75929.16;5005343;28;20073;-75
2021/05/30 03:36:31;;;;;;;0.70;0.70;;;;;;;-144.31;100.00;75955.13;5017675;28;20021;-74
2021/05/30 03:39:04;;;;;;;0.70;0.70;;;;;;;-144.31;100.00;75931.16;5002175;28;20037;-74
2021/05/30 03:41:37;;;;;;;0.70;0.70;;;;;;;-144.31;100.00;75949.13;5006763;28;20506;-74
2021/05/30 03:44:04;;;;;;;0.70;0.70;;;;;;;-144.31;100.00;75893.19;5009127;28;20045;-74
2021/05/30 03:46:30;;;;;;;0.70;0.70;;;;;;;-144.31;100.00;75895.19;5010410;28;20030;-74
2021/05/30 03:48:58;;;;;;;0.70;0.70;;;;;;;-144.31;100.00;75903.19;5007621;28;20069;-75
2021/05/30 03:51:26;;;;;;;0.60;0.60;;;;;;;-144.31;100.00;75913.16;5007563;28;20033;-75
2021/05/30 03:53:52;;;;;;;0.75;0.75;;;;;;;-144.31;100.00;75907.16;5005812;28;20045;-74
2021/05/30 03:56:19;;;;;;;0.70;0.70;;;;;;;-144.31;100.00;75933.13;4985652;28;20026;-75
2021/05/30 03:58:45;;;;;;;0.60;0.60;;;;;;;-144.31;100.00;75949.13;5007443;28;20040;-75
2021/05/30 04:01:13;;;;;;;0.60;0.60;;;;;;;-144.31;100.00;75957.13;5006593;28;20041;-74
2021/05/30 04:03:41;;;;;;;0.65;0.65;;;;;;;-144.31;100.00;75969.09;5006832;28;20537;-75
2021/05/30 04:06:07;;;;;;;0.65;0.65;;;;;;;-144.31;100.00;75985.06;5006927;28;20065;-74
2021/05/30 04:08:32;;;;;;;0.60;0.60;;;;;;;-144.31;100.00;75945.13;5023561;28;20038;-75
2021/05/30 04:10:58;;;;;;;0.70;0.70;;;;;;;-144.31;100.00;75957.13;5006852;28;20117;-74
2021/05/30 04:13:23;;;;;;;0.70;0.70;;;;;;;-144.31;100.00;75929.16;5006962;28;20040;-75
2021/05/30 04:15:51;;;;;;;0.60;0.60;;;;;;;-144.31;100.00;75947.13;5008159;28;20044;-75
2021/05/30 04:18:22;;;;;;;0.70;0.70;;;;;;;-144.31;100.00;75943.13;5023629;28;20080;-75
2021/05/30 04:20:49;;;;;;;0.70;0.70;;;;;;;-144.31;100.00;75853.25;5023531;28;20041;-74
2021/05/30 04:23:16;;;;;;;0.65;0.65;;;;;;;-144.31;100.00;75905.19;5023351;28;20563;-74
2021/05/30 04:25:41;;;;;;;0.70;0.70;;;;;;;-144.31;100.00;75873.22;4990148;28;20092;-74
2021/05/30 04:28:07;;;;;;;0.60;0.60;;;;;;;-144.31;100.00;75887.19;5006813;28;20041;-75
2021/05/30 04:30:32;;;;;;;0.70;0.70;;;;;;;-144.31;100.00;75849.25;5008467;28;20040;-73
2021/05/30 04:32:58;;;;;;;0.70;0.70;;;;;;;-144.31;100.00;75845.25;5023505;28;20566;-73
2021/05/30 04:35:23;;;;;;;0.60;0.60;;;;;;;-144.31;100.00;75823.28;5002323;28;20061;-74
2021/05/30 04:37:51;;;;;;;0.70;0.70;;;;;;;-144.31;100.00;75849.25;5003288;28;20049;-74
2021/05/30 04:40:17;;;;;;;0.65;0.65;;;;;;;-144.31;100.00;75761.34;5002588;28;20053;-74
2021/05/30 04:42:43;;;;;;;0.60;0.60;;;;;;;-144.31;100.00;75799.31;5004809;28;20034;-74
2021/05/30 04:45:13;;;;;;;;;;;;;;;-144.31;100.00;75763.34;5007222;28;20419;-74
2021/05/30 04:47:38;;;;;;;0.65;0.65;;;;;;;-144.31;100.00;75753.38;5023353;28;19917;-74
2021/05/30 04:50:05;;;;;;;0.70;0.70;;;;;;;-144.31;100.00;75725.41;5022285;28;20057;-74
2021/05/30 04:52:32;;;;;;;0.68;0.68;;;;;;;-144.31;100.00;75731.41;5008255;28;20042;-74
2021/05/30 04:54:58;;;;;;;0.60;0.60;;;;;;;-144.31;100.00;75743.38;5022680;28;20484;-74
2021/05/30 04:57:23;;;;;;;0.60;0.60;;;;;;;-144.31;100.00;75729.41;5023119;28;20044;-74
2021/05/30 04:59:51;;;;;;;0.60;0.60;;;;;;;-144.31;100.00;75705.44;5006592;28;20077;-74
2021/05/30 05:02:19;;;;;;;0.60;0.60;;;;;;;-144.31;100.00;75719.41;5026649;28;20037;-74
2021/05/30 05:04:44;;;;;;;0.60;0.60;;;;;;;-144.31;100.00;75721.41;5011535;28;20064;-74
2021/05/30 05:07:10;;;;;;;0.63;0.63;;;;;;;-144.31;100.00;75731.41;5025915;28;20488;-74
2021/05/30 05:09:35;;;;;;;0.70;0.70;;;;;;;-144.31;100.00;75711.44;5011247;28;20132;-74
2021/05/30 05:12:01;;;;;;;0.60;0.60;;;;;;;-144.31;100.00;75701.44;5011232;28;20036;-74
2021/05/30 05:14:26;;;;;;;0.55;0.55;;;;;;;-144.31;100.00;75683.47;5010369;28;20048;-74
2021/05/30 05:16:52;;;;;;;0.63;0.63;;;;;;;-144.31;100.00;75631.53;5009944;28;20037;-74
2021/05/30 05:19:18;;;;;;;0.60;0.60;;;;;;;-144.31;100.00;75583.59;5026738;28;20038;-74
2021/05/30 05:21:43;;;;;;;0.65;0.65;;;;;;;-144.31;100.00;75561.63;5027130;28;20368;-74
2021/05/30 05:24:09;;;;;;;0.60;0.60;;;;;;;-144.31;100.00;75543.66;5009095;28;20034;-74
2021/05/30 05:26:34;;;;;;;0.70;0.70;;;;;;;-144.31;100.00;75541.66;5016631;28;20053;-74
2021/05/30 05:29:00;;;;;;;0.52;0.52;;;;;;;-144.31;100.00;75525.66;5021238;28;20146;-74
2021/05/30 05:31:25;;;;;;;0.50;0.50;;;;;;;-144.31;100.00;75503.69;5010219;28;20121;-74
2021/05/30 05:33:51;;;;;;;0.60;0.60;;;;;;;-144.31;100.00;75495.72;4993927;28;20036;-75
2021/05/30 05:36:17;;;;;;;0.50;0.50;;;;;;;-144.31;100.00;75489.72;5009857;28;20124;-75
2021/05/30 05:38:43;;;;;;;0.50;0.50;;;;;;;-144.31;100.00;75465.75;5011802;28;20061;-74
2021/05/30 05:41:09;;;;;;;0.60;0.60;;;;;;;-144.31;100.00;75449.78;5008106;28;20057;-74
2021/05/30 05:43:34;;;;;;;0.60;0.60;;;;;;;-144.31;100.00;75447.78;5002810;28;20092;-74
2021/05/30 05:45:59;;;;;;;0.50;0.50;;;;;;;-144.31;100.00;75419.81;4999199;28;20062;-74
2021/05/30 05:48:25;;;;;;;0.60;0.60;;;;;;;-144.31;100.00;75405.84;5004929;28;20033;-74
2021/05/30 05:50:50;;;;;;;0.50;0.50;;;;;;;-144.31;100.00;75401.84;5006967;28;20045;-74
2021/05/30 05:53:21;;;;;;;0.60;0.60;;;;;;;-144.31;100.00;75381.88;5010134;28;20030;-74
2021/05/30 05:55:48;;;;;;;0.50;0.50;;;;;;;-144.31;100.00;75367.88;5005929;28;20077;-74
2021/05/30 05:58:14;;;;;;;0.60;0.60;;;;;;;-144.31;100.00;75355.91;5008590;28;20026;-74
2021/05/30 06:00:41;;;;;;;;;;;;;;;-144.31;100.00;75345.91;5003010;28;20045;-74
2021/05/30 06:03:07;;;;;;;0.50;0.50;;;;;;;-144.31;100.00;75323.94;5007268;28;19917;-74
2021/05/30 06:05:32;;;;;;;0.50;0.50;;;;;;;-144.31;100.00;75337.94;5005453;28;20040;-74
2021/05/30 06:07:58;;;;;;;0.50;0.50;;;;;;;-144.31;100.00;75299.97;5005605;28;20052;-74
2021/05/30 06:10:26;;;;;;;0.45;0.45;;;;;;;-144.31;100.00;75284.00;4993745;28;20038;-74
2021/05/30 06:12:53;;;;;;;0.60;0.60;;;;;;;-144.31;100.00;75282.00;5009153;28;20505;-74
2021/05/30 06:15:22;;;;;;;0.40;0.40;;;;;;;-144.31;100.00;75282.00;5004271;28;20440;-74
2021/05/30 06:17:58;;;;;;;0.50;0.50;;;;;;;-144.31;100.00;75250.06;5005277;28;20034;-75
2021/05/30 06:20:27;;;;;;;0.50;0.50;;;;;;;-144.31;100.00;75220.09;5008435;28;20049;-74
2021/05/30 06:22:56;;;;;;;0.50;0.50;;;;;;;-144.31;100.00;75224.09;5009816;28;20034;-74
2021/05/30 06:25:26;;;;;;;0.40;0.40;;;;;;;-144.31;100.00;75192.13;5010255;28;20026;-74
2021/05/30 06:27:58;;;;;;;0.45;0.45;;;;;;;-144.31;100.00;75182.16;5009717;28;20041;-74
2021/05/30 06:30:26;;;;;;;0.40;0.40;;;;;;;-144.31;100.00;75164.19;5005003;28;20033;-75
2021/05/30 06:32:52;;;;;;;0.40;0.40;;;;;;;-144.31;100.00;75146.19;5003491;28;20038;-75
2021/05/30 06:35:17;;;;;;;0.50;0.50;;;;;;;-144.31;100.00;75116.25;5013085;28;20021;-75
2021/05/30 06:37:43;;;;;;;0.40;0.40;;;;;;;-144.31;100.00;75108.25;5003138;28;20034;-75
2021/05/30 06:40:11;;;;;;;0.40;0.40;;;;;;;-144.31;100.00;75122.25;5005698;28;20112;-75
2021/05/30 06:42:39;;;;;;;0.40;0.40;;;;;;;-144.31;100.00;75106.25;5005839;28;20033;-75
2021/05/30 06:45:06;;;;;;;0.40;0.40;;;;;;;-144.31;100.00;75074.31;5000401;28;20057;-75
2021/05/30 06:47:34;;;;;;;0.40;0.40;;;;;;;-144.31;100.00;75048.34;5006149;28;20092;-75
2021/05/30 06:49:59;;;;;;;0.40;0.40;;;;;;;-144.31;100.00;75028.38;5006544;28;20026;-75
2021/05/30 06:52:25;;;;;;;0.38;0.38;;;;;;;-144.31;100.00;75022.38;5004191;28;20034;-75
2021/05/30 06:54:50;;;;;;;0.40;0.40;;;;;;;-144.31;100.00;74996.41;5009902;28;20100;-75
2021/05/30 06:57:16;;;;;;;0.40;0.40;;;;;;;-144.31;100.00;74990.44;5008786;28;20455;-75
2021/05/30 06:59:43;;;;;;;0.40;0.40;;;;;;;-144.31;100.00;75012.41;5009096;28;20503;-75
2021/05/30 07:02:08;;;;;;;0.30;0.30;;;;;;;-144.31;100.00;74972.47;5009293;28;20092;-75
2021/05/30 07:04:35;;;;;;;0.40;0.40;;;;;;;-144.31;100.00;75034.38;5021081;28;20045;-75
2021/05/30 07:07:00;;;;;;;0.40;0.40;;;;;;;-144.31;100.00;74990.44;5007024;28;20026;-75
2021/05/30 07:09:26;;;;;;;0.40;0.40;;;;;;;-144.31;100.00;74946.50;5007878;28;20033;-75
2021/05/30 07:11:52;;;;;;;0.30;0.30;;;;;;;-144.31;100.00;74932.53;5010681;28;20292;-75
2021/05/30 07:14:17;;;;;;;0.38;0.38;;;;;;;-144.31;100.00;74960.47;5005923;28;20034;-75
2021/05/30 07:16:45;;;;;;;0.38;0.38;;;;;;;-144.31;100.00;74924.53;5001734;28;20032;-75
2021/05/30 07:19:10;;;;;;;0.40;0.40;;;;;;;-144.31;100.00;74906.56;5010974;28;20029;-75
2021/05/30 07:21:36;;;;;;;0.30;0.30;;;;;;;-144.31;100.00;74892.56;5005655;28;20049;-75
2021/05/30 07:24:01;;;;;;;0.30;0.30;;;;;;;-144.31;100.00;74872.59;5003707;28;20041;-75
2021/05/30 07:26:27;;;;;;;0.40;0.40;;;;;;;-144.31;100.00;74896.56;4999753;28;20439;-75
2021/05/30 07:28:54;;;;;;;0.40;0.40;;;;;;;-144.31;100.00;74932.53;5013815;28;20034;-75
2021/05/30 07:31:21;;;;;;;0.30;0.30;;;;;;;-144.31;100.00;74884.59;5003994;28;20072;-75
2021/05/30 07:33:47;;;;;;;0.30;0.30;;;;;;;-144.31;100.00;74848.66;5008468;28;20388;-75
2021/05/30 07:36:13;;;;;;;0.30;0.30;;;;;;;-144.31;100.00;74830.66;5007371;28;20432;-75
2021/05/30 07:38:41;;;;;;;0.30;0.30;;;;;;;-144.31;100.00;74874.59;5008050;28;20474;-75
2021/05/30 07:41:07;;;;;;;0.40;0.40;;;;;;;-144.31;100.00;74860.63;5024466;28;20054;-75
2021/05/30 07:43:32;;;;;;;0.30;0.30;;;;;;;-144.31;100.00;74888.59;5023671;28;20041;-75
2021/05/30 07:45:58;;;;;;;0.30;0.30;;;;;;;-144.31;100.00;74852.63;5007451;28;20034;-75
2021/05/30 07:48:23;;;;;;;0.40;0.40;;;;;;;-144.31;100.00;74818.69;5016325;28;20148;-75
2021/05/30 07:50:51;;;;;;;0.30;0.30;;;;;;;-144.31;100.00;74876.59;5007800;28;20112;-74
2021/05/30 07:53:17;;;;;;;0.30;0.30;;;;;;;-144.31;100.00;74802.72;4993240;28;20113;-75
2021/05/30 07:55:44;;;;;;;0.30;0.30;;;;;;;-144.31;100.00;74782.75;4987478;28;20465;-75
2021/05/30 07:58:09;;;;;;;0.32;0.32;;;;;;;-144.31;100.00;74766.78;4987966;28;20030;-75
2021/05/30 08:00:35;;;;;;;0.30;0.30;;;;;;;-144.31;100.00;74770.75;4987813;28;20240;-75
2021/05/30 08:03:03;;;;;;;0.25;0.25;;;;;;;-144.31;100.00;74742.81;4987881;28;20420;-75
2021/05/30 08:05:31;;;;;;;0.38;0.38;;;;;;;-144.31;100.00;74762.78;5000393;28;20030;-75
2021/05/30 08:07:57;;;;;;;0.30;0.30;;;;;;;-144.31;100.00;74730.81;5004929;28;20065;-75
2021/05/30 08:10:26;;;;;;;0.30;0.30;;;;;;;-144.31;100.00;74714.84;5006877;28;20474;-75
2021/05/30 08:12:52;;;;;;;0.30;0.30;;;;;;;-144.31;100.00;74730.81;5008774;28;20049;-75
2021/05/30 08:15:17;;;;;;;0.30;0.30;;;;;;;-144.31;100.00;74678.91;5008435;28;20321;-75
2021/05/30 08:17:45;;;;;;;0.30;0.30;;;;;;;-144.31;100.00;74698.88;5007133;28;20506;-75
2021/05/30 08:20:12;;;;;;;;;;;;;;;-144.31;100.00;74682.91;5007195;28;20429;-75
2021/05/30 08:22:40;;;;;;;0.30;0.30;;;;;;;-144.31;100.00;74628.97;5008429;28;19942;-75
2021/05/30 08:25:07;;;;;;;0.30;0.30;;;;;;;-144.31;100.00;74607.03;5007028;28;20044;-75
2021/05/30 08:27:32;;;;;;;0.30;0.30;;;;;;;-144.31;100.00;74644.97;5007397;28;20037;-75
2021/05/30 08:29:58;;;;;;;0.30;0.30;;;;;;;-144.31;100.00;74557.09;5009031;28;20048;-75
2021/05/30 08:32:24;;;;;;;0.28;0.28;;;;;;;-144.31;100.00;74690.88;5008773;28;20108;-75
2021/05/30 08:34:52;;;;;;;0.28;0.28;;;;;;;-144.31;100.00;74585.06;5005994;28;20353;-75
2021/05/30 08:37:18;;;;;;;0.30;0.30;;;;;;;-144.31;100.00;74654.94;5007203;28;20033;-75
2021/05/30 08:39:47;;;;;;;0.20;0.20;;;;;;;-144.31;100.00;74619.00;5007093;28;20481;-75
2021/05/30 08:42:13;;;;;;;0.30;0.30;;;;;;;-144.31;100.00;74589.06;5007109;28;20511;-75
2021/05/30 08:44:39;;;;;;;0.30;0.30;;;;;;;-144.31;100.00;74521.16;5003500;28;20078;-75
2021/05/30 08:47:07;;;;;;;0.30;0.30;;;;;;;-144.31;100.00;74527.16;5021013;28;20072;-75
2021/05/30 08:49:33;;;;;;;0.30;0.30;;;;;;;-144.31;100.00;74445.28;5002053;28;20053;-75
2021/05/30 08:51:58;;;;;;;0.20;0.20;;;;;;;-144.31;100.00;74443.28;5001995;28;20061;-75
2021/05/30 08:54:24;;;;;;;0.30;0.30;;;;;;;-144.31;100.00;74549.13;5009243;28;20026;-75
2021/05/30 08:56:49;;;;;;;0.20;0.20;;;;;;;-144.31;100.00;74415.34;5005566;28;20330;-75
2021/05/30 08:59:20;;;;;;;0.20;0.20;;;;;;;-144.31;100.00;74407.34;5007811;28;20048;-75
2021/05/30 09:01:46;;;;;;;0.25;0.25;;;;;;;-144.31;100.00;74331.47;5003967;28;20038;-75
2021/05/30 09:04:13;;;;;;;0.20;0.20;;;;;;;-144.31;100.00;74391.38;5002775;28;20022;-75
2021/05/30 09:06:41;;;;;;;0.20;0.20;;;;;;;-144.31;100.00;74433.31;5004590;28;20103;-75
2021/05/30 09:09:14;;;;;;;0.20;0.20;;;;;;;-144.31;100.00;74389.38;5008115;28;20283;-75
2021/05/30 09:11:42;;;;;;;0.20;0.20;;;;;;;-144.31;100.00;74275.56;5004909;28;20396;-75
2021/05/30 09:14:33;;;;;;;;;;;;;;;-144.31;100.00;74357.44;4975247;28;20034;-75
2021/05/30 09:17:11;;;;;;;0.20;0.20;;;;;;;-144.31;100.00;74433.31;5003014;28;19925;-75
2021/05/30 09:19:46;;;;;;;0.20;0.20;;;;;;;-144.31;100.00;74507.19;5003358;28;20514;-75
2021/05/30 09:22:31;;;;;;;0.20;0.20;;;;;;;-144.31;100.00;74557.09;5006046;28;20083;-75
2021/05/30 09:25:07;;;;;;;0.20;0.20;;;;;;;-144.31;100.00;74533.13;5006362;28;20046;-75
2021/05/30 09:27:35;;;;;;;0.20;0.20;;;;;;;-144.31;100.00;74537.13;5006450;28;20112;-75
2021/05/30 09:30:08;;;;;;;0.20;0.20;;;;;;;-144.31;100.00;74503.19;5022500;28;20034;-75
2021/05/30 09:32:52;;;;;;;0.20;0.20;;;;;;;-144.31;100.00;74632.97;5007358;28;20080;-74
2021/05/30 09:35:20;;;;;;;0.20;0.20;;;;;;;-144.31;100.00;74539.13;5006365;28;20374;-75
2021/05/30 09:37:56;;;;;;;0.20;0.20;;;;;;;-144.31;100.00;74567.09;5023338;28;20065;-75
2021/05/30 09:40:22;;;;;;;0.20;0.20;;;;;;;-144.31;100.00;74423.31;5006877;28;20030;-75
2021/05/30 09:42:47;;;;;;;0.20;0.20;;;;;;;-144.31;100.00;74259.59;5006072;28;20417;-75
2021/05/30 09:45:13;;;;;;;0.30;0.30;;;;;;;-144.31;100.00;74241.63;5007765;28;20436;-75
2021/05/30 09:47:41;;;;;;;0.30;0.30;;;;;;;-144.31;100.00;74147.78;5025072;28;20041;-75
2021/05/30 09:50:12;;;;;;;0.20;0.20;;;;;;;-144.31;100.00;74223.66;5025576;28;20046;-75
2021/05/30 09:52:41;;;;;;;0.63;0.20;;;;;;;-144.31;100.00;74245.59;5026289;28;20034;-74
2021/05/30 09:55:18;;;;;;;0.25;0.20;;;;;;;-144.31;100.00;74195.69;5011267;28;20037;-75
2021/05/30 09:58:19;;;;;;;0.20;0.20;;;;;;;-144.31;100.00;74177.72;5004571;28;20037;-73
2021/05/30 10:00:58;;;;;;;0.20;0.20;;;;;;;-144.31;100.00;74289.53;5005009;28;20112;-73
2021/05/30 10:03:25;;;;;;;0.20;0.20;;;;;;;-144.31;100.00;74483.22;5004764;28;20033;-75
2021/05/30 10:05:51;;;;;;;0.20;0.20;;;;;;;-144.31;100.00;74391.38;5022843;28;20425;-75
2021/05/30 10:08:17;;;;;;;0.25;0.25;;;;;;;-144.31;100.00;74329.47;5002954;28;20396;-74
2021/05/30 10:10:44;;;;;;;0.30;0.30;;;;;;;-144.31;100.00;74331.47;5006328;28;20034;-74
2021/05/30 10:13:12;;;;;;;0.20;0.20;;;;;;;-144.31;100.00;74343.44;5024786;28;20029;-75
2021/05/30 10:15:39;;;;;;;0.25;0.25;;;;;;;-144.31;100.00;74323.47;5008836;28;20515;-75
2021/05/30 10:18:13;;;;;;;0.20;0.20;;;;;;;-144.31;100.00;74399.34;5010699;28;20034;-75
2021/05/30 10:20:39;;;;;;;0.20;0.20;;;;;;;-144.31;100.00;74295.53;5010403;28;20038;-75
2021/05/30 10:23:07;;;;;;;0.17;0.17;;;;;;;-144.31;100.00;74383.38;5009850;28;20034;-75
2021/05/30 10:25:37;;;;;;;0.20;0.20;;;;;;;-144.31;96.98;74175.72;5010845;28;20040;-74
2021/05/30 10:28:17;;;;;;;0.20;0.20;;;;;;;-144.31;90.40;74191.69;5011443;28;20577;-75
2021/05/30 10:30:45;;;;;;;0.22;0.22;;;;;;;-144.31;75.81;74095.88;5006888;28;20037;-75
2021/05/30 10:33:15;;;;;;;0.20;0.20;;;;;;;-144.31;76.17;74010.00;5008407;28;20034;-75
2021/05/30 10:35:43;;;;;;;0.20;0.20;;;;;;;-144.31;70.72;74012.00;5008812;28;20483;-74
2021/05/30 10:38:10;;;;;;;0.20;0.20;;;;;;;-144.31;65.15;73936.13;5009252;28;20026;-75
2021/05/30 10:40:43;;;;;;;0.20;0.20;;;;;;;-144.31;61.34;73982.06;4999449;28;20579;-75
2021/05/30 10:43:09;;;;;;;0.20;0.20;;;;;;;-144.31;55.08;74305.50;5003048;28;20038;-75
2021/05/30 10:45:58;;;;;;;0.10;0.10;;;;;;;-144.31;61.24;74213.66;5009069;28;20096;-74
2021/05/30 10:48:27;;;;;;;0.20;0.20;;;;;;;-144.31;60.88;74145.78;5007895;28;20033;-74
2021/05/30 10:53:31;;;;;;;0.20;0.20;;;;;;;-144.31;60.36;74335.47;5005589;28;20038;-74
2021/05/30 10:56:15;;;;;;;0.17;0.17;;;;;;;-144.31;65.24;74293.53;5007102;28;20362;-74
2021/05/30 10:58:44;;;;;;;0.20;0.20;;;;;;;-144.31;59.49;74241.63;5007611;28;20141;-74
2021/05/30 11:01:40;;;;;;;0.20;0.20;;;;;;;-144.31;56.95;74235.63;5007788;28;20108;-74
2021/05/30 11:04:33;;;;;;;0.25;0.25;;;;;;;-144.31;55.68;74167.75;5008604;28;20044;-74
2021/05/30 11:07:18;;;;;;;0.20;0.20;;;;;;;-144.31;55.73;74163.75;5008196;28;20042;-74
2021/05/30 11:09:53;;;;;;;0.20;0.20;;;;;;;-144.31;54.33;74143.78;5023578;28;20399;-74
2021/05/30 11:12:29;;;;;;;0.20;0.20;;;;;;;-144.31;53.30;74010.00;5005049;28;20653;-74
2021/05/30 11:15:09;;;;;;;0.20;0.20;;;;;;;-144.31;51.14;74111.84;4986436;28;20052;-74
2021/05/30 11:17:41;;;;;;;0.20;0.20;;;;;;;-144.31;50.59;73964.09;4992570;28;20373;-75
2021/05/30 11:20:23;;;;;;;0.20;0.20;;;;;;;-144.31;46.41;73832.31;4984566;28;20111;-75